createdAt,value
2023-04-10T00:00:33.035Z,458.00
2023-04-10T00:01:33.025Z,449.00
2023-04-10T00:02:33.328Z,472.00
2023-04-10T00:03:33.304Z,477.00
2023-04-10T00:04:33.194Z,474.00
2023-04-10T00:05:33.148Z,473.00
2023-04-10T00:06:33.157Z,448.00
2023-04-10T00:07:33.321Z,469.00
2023-04-10T00:08:33.252Z,475.00
2023-04-10T00:09:33.325Z,483.00
2023-04-10T00:10:33.426Z,486.00
2023-04-10T00:11:33.479Z,483.00
2023-04-10T00:12:33.514Z,484.00
2023-04-10T00:13:34.222Z,487.00
2023-04-10T00:14:33.472Z,472.00
2023-04-10T00:15:34.265Z,478.00
2023-04-10T00:16:33.771Z,475.00
2023-04-10T00:17:36.289Z,477.00
2023-04-10T00:18:33.753Z,475.00
2023-04-10T00:19:33.665Z,476.00
2023-04-10T00:20:35.221Z,467.00
2023-04-10T00:21:33.653Z,470.00
2023-04-10T00:22:33.638Z,472.00
2023-04-10T00:23:33.634Z,475.00
2023-04-10T00:24:33.588Z,477.00
2023-04-10T00:25:33.627Z,473.00
2023-04-10T00:26:33.585Z,470.00
2023-04-10T00:27:33.609Z,473.00
2023-04-10T00:28:33.618Z,479.00
2023-04-10T00:29:33.618Z,490.00
2023-04-10T00:30:33.562Z,479.00
2023-04-10T00:31:33.595Z,507.00
2023-04-10T00:32:33.582Z,435.00
2023-04-10T00:33:33.561Z,412.00
2023-04-10T00:34:33.653Z,470.00
2023-04-10T00:35:33.582Z,469.00
2023-04-10T00:36:34.192Z,453.00
2023-04-10T00:37:33.660Z,469.00
2023-04-10T00:38:33.508Z,469.00
2023-04-10T00:39:33.480Z,478.00
2023-04-10T00:40:33.481Z,483.00
2023-04-10T00:41:33.513Z,473.00
2023-04-10T00:42:33.587Z,473.00
2023-04-10T00:43:33.565Z,469.00
2023-04-10T00:44:33.566Z,476.00
2023-04-10T00:45:33.592Z,474.00
2023-04-10T00:46:33.621Z,478.00
2023-04-10T00:47:33.716Z,476.00
2023-04-10T00:48:33.709Z,477.00
2023-04-10T00:49:33.763Z,476.00
2023-04-10T00:50:33.734Z,484.00
2023-04-10T00:51:33.846Z,478.00
2023-04-10T00:52:33.829Z,469.00
2023-04-10T00:53:33.879Z,484.00
2023-04-10T00:54:33.845Z,478.00
2023-04-10T00:55:35.714Z,481.00
2023-04-10T00:56:33.988Z,475.00
2023-04-10T00:57:34.025Z,486.00
2023-04-10T00:58:34.083Z,472.00
2023-04-10T00:59:34.213Z,447.00
2023-04-10T01:00:34.121Z,483.00
2023-04-10T01:01:34.321Z,474.00
2023-04-10T01:02:34.425Z,476.00
2023-04-10T01:03:34.914Z,477.00
2023-04-10T01:04:34.502Z,473.00
2023-04-10T01:05:34.462Z,477.00
2023-04-10T01:06:34.432Z,463.00
2023-04-10T01:07:34.502Z,479.00
2023-04-10T01:08:34.517Z,474.00
2023-04-10T01:09:34.605Z,478.00
2023-04-10T01:10:34.650Z,476.00
2023-04-10T01:11:37.243Z,476.00
2023-04-10T01:12:34.852Z,475.00
2023-04-10T01:13:34.923Z,477.00
2023-04-10T01:14:37.650Z,482.00
2023-04-10T01:15:34.960Z,470.00
2023-04-10T01:16:35.058Z,474.00
2023-04-10T01:17:35.016Z,475.00
2023-04-10T01:18:35.061Z,477.00
2023-04-10T01:19:35.030Z,475.00
2023-04-10T01:20:34.963Z,474.00
2023-04-10T01:21:34.968Z,476.00
2023-04-10T01:22:35.705Z,480.00
2023-04-10T01:23:35.009Z,471.00
2023-04-10T01:24:34.869Z,477.00
2023-04-10T01:25:34.885Z,477.00
2023-04-10T01:26:35.724Z,489.00
2023-04-10T01:27:37.767Z,468.00
2023-04-10T01:28:34.890Z,479.00
2023-04-10T01:29:34.856Z,485.00
2023-04-10T01:30:34.922Z,488.00
2023-04-10T01:31:34.870Z,482.00
2023-04-10T01:32:34.825Z,456.00
2023-04-10T01:33:34.846Z,468.00
2023-04-10T01:34:34.869Z,483.00
2023-04-10T01:35:34.832Z,479.00
2023-04-10T01:36:34.863Z,482.00
2023-04-10T01:37:34.875Z,487.00
2023-04-10T01:38:35.707Z,492.00
2023-04-10T01:39:34.897Z,471.00
2023-04-10T01:40:34.763Z,477.00
2023-04-10T01:41:34.791Z,475.00
2023-04-10T01:42:34.799Z,474.00
2023-04-10T01:43:34.889Z,479.00
2023-04-10T01:44:34.736Z,481.00
2023-04-10T01:45:34.770Z,481.00
2023-04-10T01:46:35.373Z,479.00
2023-04-10T01:47:34.855Z,483.00
2023-04-10T01:48:34.753Z,480.00
2023-04-10T01:49:35.084Z,471.00
2023-04-10T01:50:34.701Z,478.00
2023-04-10T01:51:36.240Z,483.00
2023-04-10T01:52:34.676Z,474.00
2023-04-10T01:53:34.853Z,474.00
2023-04-10T01:54:34.819Z,480.00
2023-04-10T01:55:34.720Z,485.00
2023-04-10T01:56:34.654Z,460.00
2023-04-10T01:57:34.728Z,465.00
2023-04-10T01:58:34.687Z,471.00
2023-04-10T01:59:35.183Z,468.00
2023-04-10T02:00:34.621Z,470.00
2023-04-10T02:01:34.682Z,471.00
2023-04-10T02:02:34.814Z,469.00
2023-04-10T02:03:35.466Z,467.00
2023-04-10T02:04:34.852Z,466.00
2023-04-10T02:05:34.899Z,469.00
2023-04-10T02:06:34.628Z,476.00
2023-04-10T02:07:34.717Z,474.00
2023-04-10T02:08:34.575Z,474.00
2023-04-10T02:09:34.605Z,462.00
2023-04-10T02:10:34.560Z,465.00
2023-04-10T02:11:34.629Z,461.00
2023-04-10T02:12:34.701Z,502.00
2023-04-10T02:13:34.676Z,487.00
2023-04-10T02:14:34.785Z,475.00
2023-04-10T02:15:34.817Z,481.00
2023-04-10T02:16:34.987Z,478.00
2023-04-10T02:17:34.838Z,477.00
2023-04-10T02:18:34.884Z,477.00
2023-04-10T02:19:34.866Z,479.00
2023-04-10T02:20:34.891Z,479.00
2023-04-10T02:21:34.924Z,479.00
2023-04-10T02:22:34.947Z,478.00
2023-04-10T02:23:34.957Z,478.00
2023-04-10T02:24:35.809Z,479.00
2023-04-10T02:25:34.970Z,484.00
2023-04-10T02:26:35.017Z,485.00
2023-04-10T02:27:35.003Z,484.00
2023-04-10T02:28:34.996Z,485.00
2023-04-10T02:29:35.052Z,486.00
2023-04-10T02:30:35.104Z,458.00
2023-04-10T02:31:35.205Z,481.00
2023-04-10T02:32:35.144Z,483.00
2023-04-10T02:33:35.186Z,483.00
2023-04-10T02:34:35.274Z,482.00
2023-04-10T02:35:35.324Z,479.00
2023-04-10T02:36:35.362Z,479.00
2023-04-10T02:37:35.383Z,517.00
2023-04-10T02:38:35.378Z,466.00
2023-04-10T02:39:35.524Z,474.00
2023-04-10T02:40:35.509Z,457.00
2023-04-10T02:41:35.510Z,470.00
2023-04-10T02:42:35.593Z,471.00
2023-04-10T02:43:35.603Z,481.00
2023-04-10T02:44:35.667Z,488.00
2023-04-10T02:45:35.745Z,489.00
2023-04-10T02:46:35.880Z,486.00
2023-04-10T02:47:35.749Z,490.00
2023-04-10T02:48:35.759Z,490.00
2023-04-10T02:49:35.938Z,489.00
2023-04-10T02:50:35.877Z,489.00
2023-04-10T02:51:35.835Z,494.00
2023-04-10T02:52:35.816Z,494.00
2023-04-10T02:53:35.877Z,493.00
2023-04-10T02:54:36.091Z,493.00
2023-04-10T02:55:36.028Z,461.00
2023-04-10T02:56:35.952Z,466.00
2023-04-10T02:57:36.058Z,481.00
2023-04-10T02:58:36.030Z,481.00
2023-04-10T02:59:36.355Z,482.00
2023-04-10T03:00:36.166Z,487.00
2023-04-10T03:01:36.794Z,477.00
2023-04-10T03:02:36.336Z,483.00
2023-04-10T03:03:36.330Z,490.00
2023-04-10T03:04:36.283Z,489.00
2023-04-10T03:05:36.319Z,480.00
2023-04-10T03:06:36.796Z,484.00
2023-04-10T03:07:36.347Z,488.00
2023-04-10T03:08:36.414Z,487.00
2023-04-10T03:09:36.798Z,487.00
2023-04-10T03:10:36.459Z,489.00
2023-04-10T03:11:36.485Z,491.00
2023-04-10T03:12:36.395Z,489.00
2023-04-10T03:13:36.484Z,491.00
2023-04-10T03:14:36.486Z,486.00
2023-04-10T03:15:36.548Z,488.00
2023-04-10T03:16:36.718Z,485.00
2023-04-10T03:17:37.250Z,486.00
2023-04-10T03:18:36.598Z,476.00
2023-04-10T03:19:37.285Z,470.00
2023-04-10T03:20:36.544Z,473.00
2023-04-10T03:21:36.748Z,475.00
2023-04-10T03:22:36.582Z,477.00
2023-04-10T03:23:36.582Z,471.00
2023-04-10T03:24:36.645Z,478.00
2023-04-10T03:25:36.695Z,473.00
2023-04-10T03:26:37.726Z,478.00
2023-04-10T03:27:36.735Z,478.00
2023-04-10T03:28:37.752Z,481.00
2023-04-10T03:29:36.861Z,488.00
2023-04-10T03:30:36.838Z,483.00
2023-04-10T03:31:36.907Z,472.00
2023-04-10T03:32:36.873Z,479.00
2023-04-10T03:33:37.032Z,490.00
2023-04-10T03:34:39.796Z,489.00
2023-04-10T03:35:37.003Z,489.00
2023-04-10T03:36:36.938Z,493.00
2023-04-10T03:37:36.909Z,494.00
2023-04-10T03:38:37.704Z,489.00
2023-04-10T03:39:36.855Z,496.00
2023-04-10T03:40:36.912Z,495.00
2023-04-10T03:41:37.004Z,497.00
2023-04-10T03:42:37.782Z,496.00
2023-04-10T03:43:36.941Z,496.00
2023-04-10T03:44:36.889Z,496.00
2023-04-10T03:45:36.826Z,487.00
2023-04-10T03:46:37.303Z,489.00
2023-04-10T03:47:36.830Z,492.00
2023-04-10T03:48:36.868Z,488.00
2023-04-10T03:49:36.837Z,498.00
2023-04-10T03:50:37.310Z,489.00
2023-04-10T03:51:36.868Z,493.00
2023-04-10T03:52:36.741Z,487.00
2023-04-10T03:53:36.821Z,492.00
2023-04-10T03:54:36.764Z,495.00
2023-04-10T03:55:36.740Z,505.00
2023-04-10T03:56:36.803Z,490.00
2023-04-10T03:57:36.773Z,489.00
2023-04-10T03:58:36.758Z,490.00
2023-04-10T03:59:38.839Z,497.00
2023-04-10T04:00:36.928Z,493.00
2023-04-10T04:01:36.885Z,491.00
2023-04-10T04:02:36.989Z,487.00
2023-04-10T04:03:37.016Z,498.00
2023-04-10T04:04:36.938Z,472.00
2023-04-10T04:05:36.934Z,484.00
2023-04-10T04:06:36.880Z,492.00
2023-04-10T04:07:36.960Z,493.00
2023-04-10T04:08:36.920Z,493.00
2023-04-10T04:09:36.899Z,496.00
2023-04-10T04:10:36.961Z,496.00
2023-04-10T04:11:37.254Z,499.00
2023-04-10T04:12:36.950Z,495.00
2023-04-10T04:13:36.955Z,500.00
2023-04-10T04:14:36.932Z,497.00
2023-04-10T04:15:37.052Z,493.00
2023-04-10T04:16:37.050Z,495.00
2023-04-10T04:17:37.085Z,494.00
2023-04-10T04:18:37.102Z,494.00
2023-04-10T04:19:37.011Z,494.00
2023-04-10T04:20:37.056Z,492.00
2023-04-10T04:21:37.065Z,490.00
2023-04-10T04:22:37.085Z,491.00
2023-04-10T04:23:37.133Z,493.00
2023-04-10T04:24:37.241Z,487.00
2023-04-10T04:25:37.276Z,494.00
2023-04-10T04:26:37.277Z,485.00
2023-04-10T04:27:37.229Z,483.00
2023-04-10T04:28:37.299Z,486.00
2023-04-10T04:29:37.247Z,487.00
2023-04-10T04:30:37.335Z,486.00
2023-04-10T04:31:37.404Z,488.00
2023-04-10T04:32:38.308Z,491.00
2023-04-10T04:33:37.471Z,490.00
2023-04-10T04:34:37.459Z,491.00
2023-04-10T04:35:37.514Z,492.00
2023-04-10T04:36:37.546Z,494.00
2023-04-10T04:37:37.540Z,492.00
2023-04-10T04:38:37.573Z,491.00
2023-04-10T04:39:37.548Z,489.00
2023-04-10T04:40:40.290Z,488.00
2023-04-10T04:41:37.576Z,490.00
2023-04-10T04:42:37.581Z,494.00
2023-04-10T04:43:37.640Z,494.00
2023-04-10T04:44:37.545Z,489.00
2023-04-10T04:45:37.803Z,488.00
2023-04-10T04:46:37.654Z,492.00
2023-04-10T04:47:37.641Z,490.00
2023-04-10T04:48:37.569Z,494.00
2023-04-10T04:49:37.520Z,482.00
2023-04-10T04:50:37.603Z,486.00
2023-04-10T04:51:37.500Z,490.00
2023-04-10T04:52:37.548Z,487.00
2023-04-10T04:53:37.506Z,488.00
2023-04-10T04:54:37.491Z,491.00
2023-04-10T04:55:37.557Z,495.00
2023-04-10T04:56:37.531Z,497.00
2023-04-10T04:57:38.324Z,500.00
2023-04-10T04:58:37.481Z,501.00
2023-04-10T04:59:37.528Z,507.00
2023-04-10T05:00:37.496Z,503.00
2023-04-10T05:01:37.507Z,503.00
2023-04-10T05:02:37.713Z,515.00
2023-04-10T05:03:37.737Z,489.00
2023-04-10T05:04:37.459Z,501.00
2023-04-10T05:05:37.533Z,496.00
2023-04-10T05:06:37.503Z,493.00
2023-04-10T05:07:37.470Z,496.00
2023-04-10T05:08:37.411Z,496.00
2023-04-10T05:09:37.405Z,497.00
2023-04-10T05:10:38.876Z,497.00
2023-04-10T05:11:37.447Z,495.00
2023-04-10T05:12:37.406Z,495.00
2023-04-10T05:13:37.374Z,495.00
2023-04-10T05:14:37.344Z,499.00
2023-04-10T05:15:37.317Z,497.00
2023-04-10T05:16:37.384Z,497.00
2023-04-10T05:17:37.503Z,497.00
2023-04-10T05:18:37.425Z,498.00
2023-04-10T05:19:37.392Z,501.00
2023-04-10T05:20:38.270Z,503.00
2023-04-10T05:21:37.355Z,502.00
2023-04-10T05:22:37.364Z,504.00
2023-04-10T05:23:37.371Z,506.00
2023-04-10T05:24:37.332Z,508.00
2023-04-10T05:25:37.411Z,505.00
2023-04-10T05:26:37.470Z,505.00
2023-04-10T05:27:37.301Z,507.00
2023-04-10T05:28:37.293Z,507.00
2023-04-10T05:29:37.272Z,508.00
2023-04-10T05:30:37.236Z,507.00
2023-04-10T05:31:37.332Z,510.00
2023-04-10T05:32:37.241Z,510.00
2023-04-10T05:33:37.346Z,508.00
2023-04-10T05:34:37.301Z,506.00
2023-04-10T05:35:37.305Z,506.00
2023-04-10T05:36:37.299Z,505.00
2023-04-10T05:37:37.305Z,504.00
2023-04-10T05:38:37.325Z,505.00
2023-04-10T05:39:40.292Z,506.00
2023-04-10T05:40:37.332Z,508.00
2023-04-10T05:41:37.322Z,508.00
2023-04-10T05:42:37.446Z,505.00
2023-04-10T05:43:38.245Z,504.00
2023-04-10T05:44:37.388Z,506.00
2023-04-10T05:45:37.334Z,502.00
2023-04-10T05:46:37.423Z,501.00
2023-04-10T05:47:37.318Z,502.00
2023-04-10T05:48:37.357Z,501.00
2023-04-10T05:49:37.241Z,502.00
2023-04-10T05:50:37.328Z,503.00
2023-04-10T05:51:37.279Z,507.00
2023-04-10T05:52:37.250Z,507.00
2023-04-10T05:53:37.283Z,508.00
2023-04-10T05:54:37.766Z,507.00
2023-04-10T05:55:37.760Z,507.00
2023-04-10T05:56:37.281Z,503.00
2023-04-10T05:57:37.269Z,502.00
2023-04-10T05:58:37.241Z,510.00
2023-04-10T05:59:37.306Z,507.00
2023-04-10T06:00:37.182Z,504.00
2023-04-10T06:01:37.239Z,497.00
2023-04-10T06:02:37.511Z,497.00
2023-04-10T06:03:37.387Z,496.00
2023-04-10T06:04:37.374Z,494.00
2023-04-10T06:05:37.225Z,491.00
2023-04-10T06:06:37.803Z,494.00
2023-04-10T06:07:37.719Z,492.00
2023-04-10T06:08:37.221Z,490.00
2023-04-10T06:09:37.186Z,491.00
2023-04-10T06:10:37.142Z,491.00
2023-04-10T06:11:37.840Z,490.00
2023-04-10T06:12:37.311Z,493.00
2023-04-10T06:13:37.259Z,495.00
2023-04-10T06:14:37.309Z,494.00
2023-04-10T06:15:37.240Z,494.00
2023-04-10T06:16:37.399Z,492.00
2023-04-10T06:17:37.331Z,491.00
2023-04-10T06:18:37.387Z,488.00
2023-04-10T06:19:37.477Z,486.00
2023-04-10T06:20:37.428Z,481.00
2023-04-10T06:21:37.517Z,486.00
2023-04-10T06:22:37.591Z,487.00
2023-04-10T06:23:37.666Z,489.00
2023-04-10T06:24:37.645Z,486.00
2023-04-10T06:25:37.702Z,487.00
2023-04-10T06:26:37.864Z,485.00
2023-04-10T06:27:37.835Z,478.00
2023-04-10T06:28:37.906Z,481.00
2023-04-10T06:29:37.976Z,492.00
2023-04-10T06:30:37.851Z,488.00
2023-04-10T06:31:38.026Z,492.00
2023-04-10T06:32:38.046Z,498.00
2023-04-10T06:33:37.915Z,490.00
2023-04-10T06:34:38.019Z,490.00
2023-04-10T06:35:38.113Z,487.00
2023-04-10T06:36:38.038Z,481.00
2023-04-10T06:37:38.121Z,482.00
2023-04-10T06:38:38.088Z,483.00
2023-04-10T06:39:38.148Z,483.00
2023-04-10T06:40:38.114Z,482.00
2023-04-10T06:41:38.236Z,483.00
2023-04-10T06:42:38.272Z,486.00
2023-04-10T06:43:38.313Z,484.00
2023-04-10T06:44:38.289Z,483.00
2023-04-10T06:45:38.284Z,485.00
2023-04-10T06:46:38.352Z,481.00
2023-04-10T06:47:38.405Z,478.00
2023-04-10T06:48:39.291Z,472.00
2023-04-10T06:49:38.349Z,472.00
2023-04-10T06:50:38.375Z,478.00
2023-04-10T06:51:38.347Z,479.00
2023-04-10T06:52:38.509Z,478.00
2023-04-10T06:53:38.547Z,475.00
2023-04-10T06:54:38.584Z,477.00
2023-04-10T06:55:38.598Z,478.00
2023-04-10T06:56:38.643Z,479.00
2023-04-10T06:57:38.607Z,476.00
2023-04-10T06:58:38.753Z,480.00
2023-04-10T06:59:38.724Z,426.00
2023-04-10T07:00:38.745Z,452.00
2023-04-10T07:01:38.804Z,463.00
2023-04-10T07:02:38.808Z,470.00
2023-04-10T07:03:38.785Z,471.00
2023-04-10T07:04:38.769Z,475.00
2023-04-10T07:05:40.821Z,473.00
2023-04-10T07:06:38.931Z,475.00
2023-04-10T07:07:38.846Z,475.00
2023-04-10T07:08:38.873Z,476.00
2023-04-10T07:09:38.783Z,493.00
2023-04-10T07:10:38.719Z,464.00
2023-04-10T07:11:38.946Z,463.00
2023-04-10T07:12:38.862Z,469.00
2023-04-10T07:13:38.727Z,449.00
2023-04-10T07:14:38.768Z,465.00
2023-04-10T07:15:38.756Z,468.00
2023-04-10T07:16:38.829Z,467.00
2023-04-10T07:17:38.746Z,493.00
2023-04-10T07:18:38.757Z,473.00
2023-04-10T07:19:38.724Z,462.00
2023-04-10T07:20:38.772Z,467.00
2023-04-10T07:21:38.684Z,469.00
2023-04-10T07:22:38.700Z,472.00
2023-04-10T07:23:38.629Z,472.00
2023-04-10T07:24:38.840Z,472.00
2023-04-10T07:25:38.667Z,472.00
2023-04-10T07:26:38.664Z,475.00
2023-04-10T07:27:38.651Z,480.00
2023-04-10T07:28:38.635Z,477.00
2023-04-10T07:29:38.651Z,474.00
2023-04-10T07:30:38.661Z,475.00
2023-04-10T07:31:38.818Z,473.00
2023-04-10T07:32:38.775Z,469.00
2023-04-10T07:33:38.614Z,474.00
2023-04-10T07:34:38.621Z,481.00
2023-04-10T07:35:38.723Z,451.00
2023-04-10T07:36:38.591Z,460.00
2023-04-10T07:37:38.614Z,462.00
2023-04-10T07:38:38.589Z,466.00
2023-04-10T07:39:38.541Z,473.00
2023-04-10T07:40:38.533Z,470.00
2023-04-10T07:41:38.558Z,471.00
2023-04-10T07:42:38.564Z,470.00
2023-04-10T07:43:38.489Z,457.00
2023-04-10T07:44:38.592Z,467.00
2023-04-10T07:45:38.646Z,454.00
2023-04-10T07:46:38.497Z,467.00
2023-04-10T07:47:38.551Z,464.00
2023-04-10T07:48:38.534Z,458.00
2023-04-10T07:49:38.508Z,464.00
2023-04-10T07:50:38.497Z,456.00
2023-04-10T07:51:38.537Z,456.00
2023-04-10T07:52:38.480Z,470.00
2023-04-10T07:53:38.514Z,467.00
2023-04-10T07:54:38.475Z,459.00
2023-04-10T07:55:38.512Z,462.00
2023-04-10T07:56:38.485Z,465.00
2023-04-10T07:57:39.679Z,509.00
2023-04-10T07:58:38.619Z,429.00
2023-04-10T07:59:38.743Z,464.00
2023-04-10T08:00:38.679Z,466.00
2023-04-10T08:01:38.688Z,431.00
2023-04-10T08:02:38.754Z,451.00
2023-04-10T08:03:38.882Z,455.00
2023-04-10T08:04:38.822Z,448.00
2023-04-10T08:05:38.692Z,451.00
2023-04-10T08:06:38.763Z,451.00
2023-04-10T08:07:38.823Z,448.00
2023-04-10T08:08:38.857Z,455.00
2023-04-10T08:09:38.806Z,456.00
2023-04-10T08:10:38.867Z,457.00
2023-04-10T08:11:38.956Z,458.00
2023-04-10T08:12:38.888Z,457.00
2023-04-10T08:13:38.941Z,459.00
2023-04-10T08:14:38.950Z,462.00
2023-04-10T08:15:38.986Z,464.00
2023-04-10T08:16:38.987Z,448.00
2023-04-10T08:17:39.003Z,464.00
2023-04-10T08:18:38.972Z,452.00
2023-04-10T08:19:39.018Z,456.00
2023-04-10T08:20:39.054Z,459.00
2023-04-10T08:21:39.102Z,464.00
2023-04-10T08:22:39.098Z,466.00
2023-04-10T08:23:39.128Z,467.00
2023-04-10T08:24:39.135Z,466.00
2023-04-10T08:25:39.174Z,468.00
2023-04-10T08:26:39.289Z,467.00
2023-04-10T08:27:39.301Z,468.00
2023-04-10T08:28:39.370Z,466.00
2023-04-10T08:29:39.433Z,467.00
2023-04-10T08:30:39.422Z,466.00
2023-04-10T08:31:39.429Z,466.00
2023-04-10T08:32:39.488Z,465.00
2023-04-10T08:33:39.531Z,464.00
2023-04-10T08:34:39.538Z,462.00
2023-04-10T08:35:39.610Z,465.00
2023-04-10T08:36:39.568Z,469.00
2023-04-10T08:37:39.587Z,451.00
2023-04-10T08:38:39.635Z,464.00
2023-04-10T08:39:39.624Z,467.00
2023-04-10T08:40:39.693Z,468.00
2023-04-10T08:41:39.714Z,466.00
2023-04-10T08:42:39.780Z,466.00
2023-04-10T08:43:39.855Z,464.00
2023-04-10T08:44:39.908Z,466.00
2023-04-10T08:45:39.889Z,469.00
2023-04-10T08:46:39.996Z,464.00
2023-04-10T08:47:40.006Z,447.00
2023-04-10T08:48:40.060Z,419.00
2023-04-10T08:49:40.082Z,448.00
2023-04-10T08:50:40.134Z,458.00
2023-04-10T08:51:40.156Z,455.00
2023-04-10T08:52:40.271Z,460.00
2023-04-10T08:53:40.294Z,462.00
2023-04-10T08:54:40.310Z,461.00
2023-04-10T08:55:40.386Z,440.00
2023-04-10T08:56:40.357Z,447.00
2023-04-10T08:57:42.908Z,453.00
2023-04-10T08:58:40.392Z,454.00
2023-04-10T08:59:40.414Z,455.00
2023-04-10T09:00:40.429Z,457.00
2023-04-10T09:01:40.504Z,464.00
2023-04-10T09:02:42.371Z,461.00
2023-04-10T09:03:40.617Z,478.00
2023-04-10T09:04:40.630Z,440.00
2023-04-10T09:05:40.480Z,454.00
2023-04-10T09:06:40.561Z,461.00
2023-04-10T09:07:40.630Z,457.00
2023-04-10T09:08:40.575Z,462.00
2023-04-10T09:09:40.612Z,399.00
2023-04-10T09:10:40.675Z,440.00
2023-04-10T09:11:40.685Z,462.00
2023-04-10T09:12:40.695Z,451.00
2023-04-10T09:13:40.722Z,461.00
2023-04-10T09:14:40.833Z,464.00
2023-04-10T09:15:40.891Z,458.00
2023-04-10T09:16:40.831Z,460.00
2023-04-10T09:17:40.921Z,445.00
2023-04-10T09:18:40.952Z,461.00
2023-04-10T09:19:41.794Z,462.00
2023-04-10T09:20:40.944Z,458.00
2023-04-10T09:21:43.824Z,404.00
2023-04-10T09:22:40.927Z,452.00
2023-04-10T09:23:40.894Z,459.00
2023-04-10T09:24:40.921Z,457.00
2023-04-10T09:25:41.801Z,459.00
2023-04-10T09:26:40.901Z,465.00
2023-04-10T09:27:40.884Z,465.00
2023-04-10T09:28:40.897Z,465.00
2023-04-10T09:29:40.907Z,463.00
2023-04-10T09:30:40.869Z,464.00
2023-04-10T09:31:40.848Z,448.00
2023-04-10T09:32:40.971Z,457.00
2023-04-10T09:33:40.875Z,461.00
2023-04-10T09:34:40.858Z,462.00
2023-04-10T09:35:40.828Z,465.00
2023-04-10T09:36:41.467Z,468.00
2023-04-10T09:37:40.878Z,464.00
2023-04-10T09:38:40.815Z,457.00
2023-04-10T09:39:40.798Z,468.00
2023-04-10T09:40:40.807Z,472.00
2023-04-10T09:41:40.827Z,444.00
2023-04-10T09:42:40.883Z,456.00
2023-04-10T09:43:40.842Z,457.00
2023-04-10T09:44:40.838Z,459.00
2023-04-10T09:45:40.813Z,453.00
2023-04-10T09:46:40.871Z,454.00
2023-04-10T09:47:40.861Z,430.00
2023-04-10T09:48:40.955Z,436.00
2023-04-10T09:49:40.970Z,448.00
2023-04-10T09:50:41.081Z,415.00
2023-04-10T09:51:41.058Z,432.00
2023-04-10T09:52:40.972Z,452.00
2023-04-10T09:53:41.037Z,466.00
2023-04-10T09:54:41.061Z,459.00
2023-04-10T09:55:41.138Z,431.00
2023-04-10T09:56:41.249Z,453.00
2023-04-10T09:57:41.222Z,458.00
2023-04-10T09:58:41.290Z,455.00
2023-04-10T09:59:42.600Z,457.00
2023-04-10T10:00:41.393Z,460.00
2023-04-10T10:01:43.359Z,458.00
2023-04-10T10:02:41.588Z,456.00
2023-04-10T10:03:41.586Z,458.00
2023-04-10T10:04:41.591Z,456.00
2023-04-10T10:05:41.569Z,459.00
2023-04-10T10:06:41.544Z,437.00
2023-04-10T10:07:41.567Z,522.00
2023-04-10T10:08:41.533Z,441.00
2023-04-10T10:09:41.551Z,437.00
2023-04-10T10:10:41.566Z,410.00
2023-04-10T10:11:41.484Z,432.00
2023-04-10T10:12:41.607Z,429.00
2023-04-10T10:13:41.546Z,455.00
2023-04-10T10:14:41.542Z,431.00
2023-04-10T10:15:41.629Z,379.00
2023-04-10T10:16:44.526Z,438.00
2023-04-10T10:17:41.601Z,472.00
2023-04-10T10:18:41.616Z,466.00
2023-04-10T10:19:41.633Z,470.00
2023-04-10T10:20:41.670Z,462.00
2023-04-10T10:21:41.574Z,463.00
2023-04-10T10:22:41.618Z,462.00
2023-04-10T10:23:41.608Z,458.00
2023-04-10T10:24:41.572Z,460.00
2023-04-10T10:25:41.556Z,461.00
2023-04-10T10:26:41.562Z,464.00
2023-04-10T10:27:41.536Z,464.00
2023-04-10T10:28:44.308Z,431.00
2023-04-10T10:29:41.529Z,455.00
2023-04-10T10:30:41.551Z,459.00
2023-04-10T10:31:42.354Z,470.00
2023-04-10T10:32:41.574Z,436.00
2023-04-10T10:33:41.516Z,448.00
2023-04-10T10:34:41.521Z,446.00
2023-04-10T10:35:41.488Z,457.00
2023-04-10T10:36:41.620Z,449.00
2023-04-10T10:37:41.464Z,433.00
2023-04-10T10:38:41.480Z,444.00
2023-04-10T10:39:41.500Z,447.00
2023-04-10T10:40:41.494Z,462.00
2023-04-10T10:41:41.439Z,412.00
2023-04-10T10:42:41.445Z,441.00
2023-04-10T10:43:41.432Z,456.00
2023-04-10T10:44:41.670Z,457.00
2023-04-10T10:45:41.512Z,456.00
2023-04-10T10:46:41.428Z,460.00
2023-04-10T10:47:41.502Z,462.00
2023-04-10T10:48:41.430Z,462.00
2023-04-10T10:49:42.308Z,459.00
2023-04-10T10:50:41.405Z,460.00
2023-04-10T10:51:42.343Z,436.00
2023-04-10T10:52:42.399Z,410.00
2023-04-10T10:53:41.407Z,452.00
2023-04-10T10:54:53.586Z,458.00
2023-04-10T10:55:42.416Z,426.00
2023-04-10T10:56:42.359Z,447.00
2023-04-10T10:57:41.479Z,498.00
2023-04-10T10:58:41.499Z,426.00
2023-04-10T10:59:41.524Z,462.00
2023-04-10T11:00:41.593Z,461.00
2023-04-10T11:01:44.374Z,462.00
2023-04-10T11:02:41.718Z,461.00
2023-04-10T11:03:41.687Z,457.00
2023-04-10T11:04:41.563Z,458.00
2023-04-10T11:05:41.581Z,456.00
2023-04-10T11:06:43.550Z,456.00
2023-04-10T11:07:41.571Z,460.00
2023-04-10T11:08:42.309Z,474.00
2023-04-10T11:09:41.557Z,422.00
2023-04-10T11:10:41.571Z,442.00
2023-04-10T11:11:41.593Z,429.00
2023-04-10T11:12:41.509Z,444.00
2023-04-10T11:13:41.528Z,453.00
2023-04-10T11:14:41.555Z,456.00
2023-04-10T11:15:41.513Z,451.00
2023-04-10T11:16:41.639Z,454.00
2023-04-10T11:17:41.539Z,456.00
2023-04-10T11:18:41.462Z,459.00
2023-04-10T11:19:41.869Z,452.00
2023-04-10T11:20:41.550Z,457.00
2023-04-10T11:21:41.575Z,452.00
2023-04-10T11:22:41.534Z,450.00
2023-04-10T11:23:41.508Z,451.00
2023-04-10T11:24:41.426Z,452.00
2023-04-10T11:25:41.642Z,452.00
2023-04-10T11:26:41.478Z,454.00
2023-04-10T11:27:42.438Z,456.00
2023-04-10T11:28:41.438Z,428.00
2023-04-10T11:29:42.401Z,454.00
2023-04-10T11:30:41.476Z,455.00
2023-04-10T11:31:41.461Z,449.00
2023-04-10T11:32:41.436Z,516.00
2023-04-10T11:33:41.382Z,419.00
2023-04-10T11:34:41.350Z,475.00
2023-04-10T11:35:48.411Z,456.00
2023-04-10T11:36:42.361Z,444.00
2023-04-10T11:37:42.346Z,371.00
2023-04-10T11:38:41.396Z,428.00
2023-04-10T11:39:41.385Z,446.00
2023-04-10T11:40:43.812Z,448.00
2023-04-10T11:41:41.498Z,447.00
2023-04-10T11:42:41.568Z,448.00
2023-04-10T11:43:41.668Z,450.00
2023-04-10T11:44:42.454Z,396.00
2023-04-10T11:45:41.676Z,425.00
2023-04-10T11:46:41.668Z,444.00
2023-04-10T11:47:41.676Z,449.00
2023-04-10T11:48:41.761Z,453.00
2023-04-10T11:49:41.960Z,453.00
2023-04-10T11:50:41.856Z,455.00
2023-04-10T11:51:42.839Z,459.00
2023-04-10T11:52:41.864Z,456.00
2023-04-10T11:53:41.878Z,456.00
2023-04-10T11:54:41.996Z,492.00
2023-04-10T11:55:42.174Z,349.00
2023-04-10T11:56:42.882Z,428.00
2023-04-10T11:57:42.029Z,442.00
2023-04-10T11:58:42.075Z,437.00
2023-04-10T11:59:42.137Z,454.00
2023-04-10T12:00:42.202Z,454.00
2023-04-10T12:01:43.295Z,434.00
2023-04-10T12:02:42.424Z,445.00
2023-04-10T12:03:42.477Z,442.00
2023-04-10T12:04:42.414Z,439.00
2023-04-10T12:05:42.350Z,446.00
2023-04-10T12:06:42.393Z,454.00
2023-04-10T12:07:42.416Z,439.00
2023-04-10T12:08:42.445Z,444.00
2023-04-10T12:09:42.526Z,446.00
2023-04-10T12:10:42.492Z,451.00
2023-04-10T12:11:42.493Z,458.00
2023-04-10T12:12:42.639Z,460.00
2023-04-10T12:13:42.597Z,457.00
2023-04-10T12:14:42.675Z,470.00
2023-04-10T12:15:42.688Z,448.00
2023-04-10T12:16:42.713Z,455.00
2023-04-10T12:17:42.767Z,461.00
2023-04-10T12:18:42.742Z,464.00
2023-04-10T12:19:42.794Z,427.00
2023-04-10T12:20:43.296Z,420.00
2023-04-10T12:21:43.179Z,447.00
2023-04-10T12:22:42.898Z,456.00
2023-04-10T12:23:43.847Z,458.00
2023-04-10T12:24:42.966Z,459.00
2023-04-10T12:25:42.938Z,457.00
2023-04-10T12:26:42.995Z,463.00
2023-04-10T12:27:42.976Z,458.00
2023-04-10T12:28:42.987Z,457.00